Terminal Aerodrome Forecast
Issued by NWS Central Illinois

Home | Current Version | Previous Version | Text Only | Print | Product List | Glossary On
Versions: 1 2 3 4 5 6 7 8 9 10 11 12 13 14 15 16 17 18 19 20 21 22 23 24 25
672
FTUS43 KILX 301120
TAFSPI
TAF
KSPI 301120Z 3012/0112 36010KT 4SM SHRA VCTS OVC003CB
     FM301500 15011KT 3SM SHRA VCTS OVC008CB
      TEMPO 3018/3020 2SM TSRA OVC015CB
     FM302000 16016G26KT P6SM SHRA VCTS SCT015 BKN025CB
     FM010000 18018G29KT P6SM SHRA VCTS SCT020CB BKN030
     FM010400 20011KT P6SM BKN050=

USA.gov is the U.S. government's official web portal to all federal, state and local government web resources and services.